Time;durP1;ratioP1;P1;durP2;ratioP2;P2;SDS_P1;SDS_P2;PMS_P1;PMS_P2;Temp;Humidity;BMP_temperature;BMP_pressure;BME280_temperature;BME280_humidity;BME280_pressure;Samples;Min_cycle;Max_cycle;Signal;HPM_P1;HPM_P2
2023/02/02 00:00:58;;;;;;;7.70;4.20;;;;;;;2.28;86.83;98694.00;218538;1256;139021;-65
2023/02/02 00:06:09;;;;;;;6.40;4.80;;;;;;;2.25;86.84;98695.95;218274;1254;141713;-63
2023/02/02 00:11:15;;;;;;;11.70;6.70;;;;;;;2.22;87.10;98692.88;219688;1254;139044;-64
2023/02/02 00:16:29;;;;;;;7.70;5.90;;;;;;;2.20;87.23;98689.67;218629;1254;139788;-63
2023/02/02 00:21:36;;;;;;;6.60;5.60;;;;;;;2.17;87.13;98699.32;218084;1254;138751;-67
2023/02/02 00:26:43;;;;;;;6.50;5.30;;;;;;;2.11;87.43;98696.56;218868;1254;139614;-66
2023/02/02 00:31:48;;;;;;;7.00;5.60;;;;;;;2.07;87.64;98695.42;218739;1254;139936;-64
2023/02/02 00:36:52;;;;;;;7.60;5.40;;;;;;;2.06;87.61;98692.69;217867;1254;139524;-68
2023/02/02 00:41:57;;;;;;;8.50;5.00;;;;;;;2.03;87.75;98696.32;219769;1254;139886;-69
2023/02/02 00:47:01;;;;;;;9.50;5.40;;;;;;;2.05;88.10;98696.23;217894;1257;139905;-66
2023/02/02 00:52:05;;;;;;;4.10;3.70;;;;;;;2.08;88.22;98698.45;219021;1254;139331;-66
2023/02/02 00:57:13;;;;;;;4.30;3.90;;;;;;;2.13;88.09;98699.48;218913;1254;139024;-68
2023/02/02 01:02:19;;;;;;;8.30;3.70;;;;;;;2.17;87.94;98695.63;219883;1253;138822;-66
2023/02/02 01:07:25;;;;;;;15.80;3.70;;;;;;;2.19;87.93;98699.87;219325;1256;139683;-68
2023/02/02 01:12:30;;;;;;;5.10;3.90;;;;;;;2.26;88.33;98698.04;220237;1256;139236;-68
2023/02/02 01:17:34;;;;;;;6.80;4.40;;;;;;;2.35;88.16;98702.69;220341;1256;139931;-68
2023/02/02 01:22:39;;;;;;;5.60;3.10;;;;;;;2.42;88.24;98695.02;220309;1256;140233;-71
2023/02/02 01:27:44;;;;;;;8.70;3.70;;;;;;;2.44;88.06;98695.52;220250;1256;139814;-72
2023/02/02 01:32:49;;;;;;;10.60;5.30;;;;;;;2.45;87.88;98698.75;220102;1256;140574;-71
2023/02/02 01:37:53;;;;;;;12.60;4.80;;;;;;;2.46;88.03;98701.41;217740;1260;139041;-69
2023/02/02 01:42:59;;;;;;;9.00;2.70;;;;;;;2.50;88.20;98704.84;218185;1257;246138;-68
2023/02/02 01:48:04;;;;;;;17.00;8.00;;;;;;;2.52;88.12;98706.66;217957;1257;231330;-68
2023/02/02 01:53:08;;;;;;;11.70;4.80;;;;;;;2.52;87.97;98705.60;218974;1256;139421;-69
2023/02/02 01:58:22;;;;;;;10.20;4.90;;;;;;;2.54;88.09;98703.34;218566;1256;140749;-65
2023/02/02 02:03:30;;;;;;;7.50;4.20;;;;;;;2.56;88.35;98701.59;217681;1256;139128;-68
2023/02/02 02:08:43;;;;;;;11.40;5.30;;;;;;;2.55;88.27;98702.12;217649;1260;140491;-66
2023/02/02 02:32:12;;;;;;;14.10;4.30;;;;;;;2.57;88.11;98704.26;218408;1256;140145;-68
2023/02/02 02:37:24;;;;;;;4.40;2.70;;;;;;;2.60;88.25;98704.49;217124;1256;140818;-66
2023/02/02 02:42:32;;;;;;;12.50;3.80;;;;;;;2.63;88.26;98699.02;218721;1257;139566;-68
2023/02/02 02:47:40;;;;;;;9.00;2.90;;;;;;;2.61;88.13;98694.16;218239;1256;138890;-72
2023/02/02 02:52:48;;;;;;;13.10;3.50;;;;;;;2.57;88.06;98699.27;218631;1256;139585;-76
2023/02/02 02:58:42;;;;;;;6.20;2.70;;;;;;;2.58;87.97;98701.25;218950;1256;139757;-68
2023/02/02 03:04:11;;;;;;;5.90;3.20;;;;;;;2.59;87.91;98699.27;219141;1257;140683;-69
2023/02/02 03:09:24;;;;;;;7.50;4.10;;;;;;;2.57;87.75;98696.32;220238;1256;139875;-65
2023/02/02 03:14:28;;;;;;;14.70;3.80;;;;;;;2.53;87.87;98698.48;220417;1257;140102;-67
2023/02/02 03:19:33;;;;;;;5.20;3.00;;;;;;;2.56;88.09;98698.23;220451;1256;139947;-67
2023/02/02 03:24:38;;;;;;;6.40;3.10;;;;;;;2.63;87.96;98697.77;219030;1256;139086;-68
2023/02/02 03:29:42;;;;;;;10.00;3.40;;;;;;;2.67;87.74;98694.95;217243;1259;139546;-68
2023/02/02 03:34:46;;;;;;;9.60;3.00;;;;;;;2.71;87.80;98691.70;218257;1256;139338;-67
2023/02/02 03:39:51;;;;;;;5.80;3.60;;;;;;;2.72;87.68;98690.89;218764;1257;139681;-67
2023/02/02 03:44:57;;;;;;;5.90;3.90;;;;;;;2.69;87.58;98680.77;217936;1257;139027;-65
2023/02/02 03:50:04;;;;;;;6.20;3.00;;;;;;;2.67;87.58;98683.59;218551;1256;139761;-67
2023/02/02 03:55:11;;;;;;;7.30;3.00;;;;;;;2.70;87.60;98674.63;217857;1260;140276;-68
2023/02/02 04:00:16;;;;;;;6.30;2.70;;;;;;;2.72;87.59;98666.64;217536;1257;139411;-66
2023/02/02 04:05:20;;;;;;;6.50;2.90;;;;;;;2.72;87.54;98664.05;217650;1260;139155;-66
2023/02/02 04:10:26;;;;;;;6.40;3.10;;;;;;;2.71;87.57;98659.16;218826;1259;142800;-67
2023/02/02 04:15:32;;;;;;;8.50;2.60;;;;;;;2.71;87.41;98648.66;218161;1256;140230;-68
2023/02/02 04:20:37;;;;;;;6.60;3.00;;;;;;;2.66;87.41;98636.86;217900;1256;139509;-66
2023/02/02 04:25:48;;;;;;;4.90;2.50;;;;;;;2.65;87.27;98638.83;218455;1255;141902;-66
2023/02/02 04:30:54;;;;;;;2.10;1.80;;;;;;;2.63;87.22;98629.73;217753;1257;139345;-66
2023/02/02 04:36:01;;;;;;;5.20;2.10;;;;;;;2.63;87.39;98624.21;219299;1256;141194;-68
2023/02/02 04:41:13;;;;;;;6.40;2.80;;;;;;;2.61;87.47;98617.63;218702;1257;139401;-67
2023/02/02 04:46:18;;;;;;;8.20;2.90;;;;;;;2.56;87.45;98610.36;219929;1255;140748;-66
2023/02/02 04:51:22;;;;;;;8.10;2.00;;;;;;;2.53;87.56;98601.46;219478;1257;139483;-66
2023/02/02 04:56:27;;;;;;;6.50;3.50;;;;;;;2.55;87.50;98596.20;220199;1257;140691;-66
2023/02/02 05:01:33;;;;;;;9.30;2.00;;;;;;;2.58;87.50;98588.50;219418;1257;139867;-67
2023/02/02 05:06:37;;;;;;;7.30;2.50;;;;;;;2.59;87.50;98578.70;220135;1256;139866;-68
2023/02/02 05:11:43;;;;;;;7.20;2.30;;;;;;;2.61;87.59;98573.06;219420;1257;140399;-66
2023/02/02 05:16:48;;;;;;;9.20;2.90;;;;;;;2.62;87.21;98569.58;219538;1257;139829;-68
2023/02/02 05:21:53;;;;;;;7.00;2.10;;;;;;;2.61;87.23;98567.48;219659;1256;364647;-68
2023/02/02 05:26:59;;;;;;;6.70;3.50;;;;;;;2.58;86.99;98565.02;217930;1257;139308;-66
2023/02/02 05:32:04;;;;;;;4.20;2.40;;;;;;;2.57;87.21;98563.20;219552;1257;139109;-67
2023/02/02 05:37:09;;;;;;;11.20;3.00;;;;;;;2.53;86.98;98560.31;217811;1259;139202;-67
2023/02/02 05:42:13;;;;;;;5.10;1.60;;;;;;;2.44;86.94;98548.02;218555;1259;139524;-67
2023/02/02 05:47:19;;;;;;;1.40;1.30;;;;;;;2.35;86.92;98532.75;217728;1256;140223;-67
2023/02/02 05:52:24;;;;;;;5.30;1.30;;;;;;;2.26;86.79;98529.64;218775;1256;140025;-67
2023/02/02 05:57:29;;;;;;;6.80;1.50;;;;;;;2.19;86.95;98531.38;218376;1256;139387;-67
2023/02/02 06:02:34;;;;;;;6.90;1.60;;;;;;;2.13;86.99;98528.09;217702;1257;139890;-67
2023/02/02 06:07:38;;;;;;;2.80;1.40;;;;;;;2.05;87.09;98531.48;218114;1257;140217;-67
2023/02/02 06:12:43;;;;;;;5.30;1.80;;;;;;;1.96;86.92;98527.89;217533;1259;140295;-67
2023/02/02 06:17:48;;;;;;;2.40;1.00;;;;;;;1.90;86.77;98531.50;217351;1257;139544;-66
2023/02/02 06:22:52;;;;;;;4.00;1.70;;;;;;;1.80;86.92;98525.28;218865;1256;139172;-67
2023/02/02 06:27:58;;;;;;;1.00;0.90;;;;;;;1.72;87.08;98522.97;218696;1259;139070;-66
2023/02/02 06:33:04;;;;;;;2.50;1.10;;;;;;;1.64;86.73;98523.31;219266;1256;140045;-67
2023/02/02 06:38:10;;;;;;;1.40;1.10;;;;;;;1.59;87.11;98523.77;218764;1257;139451;-67
2023/02/02 06:43:15;;;;;;;1.30;0.90;;;;;;;1.54;86.93;98522.58;220475;1256;140833;-67
2023/02/02 06:48:20;;;;;;;2.70;1.00;;;;;;;1.51;87.18;98522.31;220397;1257;139764;-67
2023/02/02 06:53:26;;;;;;;3.40;1.20;;;;;;;1.51;87.36;98523.89;220418;1257;140137;-67
2023/02/02 06:58:34;;;;;;;2.30;1.30;;;;;;;1.54;87.49;98519.85;219423;1259;139929;-67
2023/02/02 07:03:39;;;;;;;1.00;0.90;;;;;;;1.53;87.15;98515.79;219845;1257;140122;-67
2023/02/02 07:08:43;;;;;;;1.80;1.70;;;;;;;1.52;87.12;98508.85;218501;1257;139181;-67
2023/02/02 07:13:58;;;;;;;1.50;1.40;;;;;;;1.54;87.82;98509.71;220061;1257;140391;-67
2023/02/02 07:19:03;;;;;;;4.60;1.90;;;;;;;1.57;87.78;98511.05;219765;1259;219945;-68
2023/02/02 07:24:10;;;;;;;1.40;1.20;;;;;;;1.57;87.53;98519.00;219161;1259;139704;-67
2023/02/02 07:29:15;;;;;;;2.20;1.10;;;;;;;1.54;87.58;98523.85;218580;1255;140887;-67
2023/02/02 07:34:20;;;;;;;2.10;1.90;;;;;;;1.56;87.52;98530.36;218393;1255;139343;-67
2023/02/02 07:39:27;;;;;;;3.80;1.60;;;;;;;1.52;87.79;98536.98;218919;1256;139151;-65
2023/02/02 07:44:31;;;;;;;4.80;2.20;;;;;;;1.53;87.64;98546.17;218667;1257;139197;-65
2023/02/02 07:49:36;;;;;;;2.50;2.20;;;;;;;1.48;87.80;98552.73;217970;1257;138536;-66
2023/02/02 07:54:41;;;;;;;4.30;1.80;;;;;;;1.51;88.64;98556.45;219154;1257;139035;-67
2023/02/02 07:59:45;;;;;;;2.70;1.40;;;;;;;1.58;89.06;98562.03;218114;1257;138893;-65
2023/02/02 08:04:51;;;;;;;2.10;1.50;;;;;;;1.71;89.28;98567.51;218837;1259;138979;-67
2023/02/02 08:09:57;;;;;;;1.60;1.30;;;;;;;1.87;89.91;98579.50;218059;1258;139404;-67
2023/02/02 08:15:04;;;;;;;4.50;1.30;;;;;;;2.02;89.97;98588.80;218619;1256;141171;-66
2023/02/02 08:20:12;;;;;;;1.90;1.70;;;;;;;2.16;89.99;98595.70;218609;1258;139080;-67
2023/02/02 08:25:16;;;;;;;1.50;1.00;;;;;;;2.30;89.94;98608.86;219189;1257;139496;-66
2023/02/02 08:30:23;;;;;;;1.50;1.40;;;;;;;2.39;89.83;98621.02;217879;1257;139348;-67
2023/02/02 08:35:29;;;;;;;1.10;1.00;;;;;;;2.38;89.78;98648.30;218108;1257;139820;-67
2023/02/02 08:40:34;;;;;;;1.10;1.00;;;;;;;2.40;89.65;98655.94;219773;1257;139945;-67
2023/02/02 08:45:42;;;;;;;2.40;1.30;;;;;;;2.42;89.45;98670.90;220319;1259;140929;-68
2023/02/02 08:51:11;;;;;;;3.40;1.70;;;;;;;2.49;89.49;98685.05;220405;1257;139948;-67
2023/02/02 08:56:20;;;;;;;1.10;0.90;;;;;;;2.56;89.49;98700.70;219599;1259;139730;-65
2023/02/02 09:01:27;;;;;;;1.60;1.50;;;;;;;2.59;89.14;98709.84;219249;1257;139589;-67
2023/02/02 09:06:38;;;;;;;3.10;1.60;;;;;;;2.62;89.38;98726.55;219623;1259;140518;-67
2023/02/02 09:11:42;;;;;;;4.40;2.20;;;;;;;2.63;89.04;98729.86;219711;1256;140244;-66
2023/02/02 09:16:48;;;;;;;5.70;2.70;;;;;;;2.62;89.13;98742.98;218157;1259;138667;-67
2023/02/02 09:21:54;;;;;;;5.20;2.70;;;;;;;2.64;89.08;98756.73;218916;1257;139413;-66
2023/02/02 09:27:01;;;;;;;5.00;2.50;;;;;;;2.68;88.97;98767.45;218427;1257;139841;-67
2023/02/02 09:32:08;;;;;;;3.70;3.00;;;;;;;2.69;89.19;98776.69;218206;1259;139334;-67
2023/02/02 09:37:13;;;;;;;4.10;3.00;;;;;;;2.74;89.23;98792.66;218009;1259;140536;-67
2023/02/02 09:42:43;;;;;;;4.20;2.50;;;;;;;2.82;89.16;98801.52;218742;1256;141416;-67
2023/02/02 09:48:01;;;;;;;3.40;2.20;;;;;;;2.87;89.04;98806.29;218688;1256;139767;-66
2023/02/02 09:53:20;;;;;;;5.10;2.60;;;;;;;2.88;89.04;98815.76;218077;1256;139347;-68
2023/02/02 09:58:33;;;;;;;4.10;2.90;;;;;;;2.92;88.92;98822.67;218324;1257;139416;-66
2023/02/02 10:04:09;;;;;;;2.20;2.00;;;;;;;3.02;89.19;98833.23;218157;1259;139767;-67
2023/02/02 10:09:47;;;;;;;1.90;1.80;;;;;;;3.12;89.18;98836.29;218564;1259;139496;-67
2023/02/02 10:14:57;;;;;;;1.60;1.10;;;;;;;3.15;88.96;98837.05;218740;1257;139390;-67
2023/02/02 10:20:30;;;;;;;1.30;1.00;;;;;;;3.26;88.99;98845.40;219176;1259;140098;-65
2023/02/02 10:25:40;;;;;;;1.30;1.20;;;;;;;3.36;89.05;98851.67;220161;1257;139354;-68
2023/02/02 10:30:59;;;;;;;1.60;1.20;;;;;;;3.46;88.69;98866.61;218747;1259;139266;-68
2023/02/02 10:36:05;;;;;;;1.10;1.00;;;;;;;3.40;88.19;98880.98;218880;1257;139305;-67
2023/02/02 10:41:30;;;;;;;1.30;1.10;;;;;;;3.33;88.14;98884.45;220053;1256;139940;-66
2023/02/02 10:46:42;;;;;;;2.70;1.50;;;;;;;3.29;88.26;98889.44;219908;1257;139357;-68
2023/02/02 10:51:57;;;;;;;2.30;2.10;;;;;;;3.22;88.11;98900.60;220220;1256;139912;-67
2023/02/02 10:57:06;;;;;;;3.30;2.40;;;;;;;3.17;88.36;98907.58;219951;1257;140812;-68
2023/02/02 11:02:14;;;;;;;1.40;1.30;;;;;;;3.17;88.48;98925.29;218299;1257;139380;-68
2023/02/02 11:07:24;;;;;;;2.70;1.80;;;;;;;3.20;88.76;98930.46;218943;1259;139348;-67
2023/02/02 11:12:35;;;;;;;1.20;1.20;;;;;;;3.20;88.75;98941.56;218507;1257;139427;-67
2023/02/02 11:17:40;;;;;;;1.60;1.00;;;;;;;3.16;88.89;98949.95;219058;1258;140347;-67
2023/02/02 11:22:47;;;;;;;1.80;1.70;;;;;;;3.14;88.95;98954.85;219586;1257;139830;-67
2023/02/02 11:27:52;;;;;;;3.30;1.70;;;;;;;3.17;89.16;98960.41;218546;1258;139924;-66
2023/02/02 11:32:58;;;;;;;2.40;2.00;;;;;;;3.20;89.42;98971.19;217948;1260;139323;-67
2023/02/02 11:38:16;;;;;;;4.40;3.40;;;;;;;3.23;89.36;98986.58;218473;1257;139600;-66
2023/02/02 11:43:33;;;;;;;2.50;2.30;;;;;;;3.23;89.41;99009.48;219025;1255;139245;-67
2023/02/02 11:48:46;;;;;;;4.30;2.50;;;;;;;3.25;89.27;99021.79;217915;1259;139526;-66
2023/02/02 11:54:31;;;;;;;3.20;2.80;;;;;;;3.25;89.21;99029.48;217776;1260;139715;-67
2023/02/02 11:59:42;;;;;;;4.70;2.10;;;;;;;3.23;89.20;99041.08;218519;1259;139314;-65
2023/02/02 12:04:51;;;;;;;3.50;2.90;;;;;;;3.26;89.43;99048.90;218943;1260;140257;-67
2023/02/02 12:10:03;;;;;;;4.00;2.60;;;;;;;3.31;89.40;99057.81;218611;1257;140278;-67
2023/02/02 12:15:33;;;;;;;4.40;2.40;;;;;;;3.38;89.42;99075.66;217620;1257;143123;-68
2023/02/02 12:21:05;;;;;;;4.20;2.80;;;;;;;3.47;89.27;99082.58;219128;1257;139590;-67
2023/02/02 12:26:29;;;;;;;2.80;2.00;;;;;;;3.48;89.14;99090.89;219182;1257;140424;-68
2023/02/02 12:31:55;;;;;;;4.00;2.60;;;;;;;3.46;88.89;99093.41;219190;1256;139438;-68
2023/02/02 12:37:28;;;;;;;3.90;2.70;;;;;;;3.47;88.74;99100.73;220434;1257;139863;-68
2023/02/02 12:43:25;;;;;;;3.70;2.70;;;;;;;3.37;88.37;99118.46;218042;1259;139488;-66
2023/02/02 12:48:48;;;;;;;4.20;2.50;;;;;;;3.33;88.49;99130.11;218526;1257;141206;-68
2023/02/02 12:54:34;;;;;;;1.90;1.50;;;;;;;3.28;88.19;99151.58;220107;1256;139487;-66
2023/02/02 13:00:24;;;;;;;2.30;1.60;;;;;;;3.08;87.50;99163.23;218368;1256;139647;-67
2023/02/02 13:05:40;;;;;;;;;;;;;;;2.89;87.54;99185.77;219800;1257;139510;-67
2023/02/02 13:10:54;;;;;;;1.10;0.90;;;;;;;2.72;87.61;99207.80;219079;1257;126206;-70
2023/02/02 13:16:13;;;;;;;1.10;1.00;;;;;;;2.57;87.64;99206.56;218630;1257;139540;-68
2023/02/02 13:21:21;;;;;;;1.70;1.40;;;;;;;2.49;87.52;99209.92;218129;1257;139265;-67
2023/02/02 13:26:30;;;;;;;;;;;;;;;2.49;87.66;99221.00;218639;1256;141382;-67
2023/02/02 13:31:44;;;;;;;1.40;1.30;;;;;;;2.51;88.00;99242.56;218448;1259;128248;-67
2023/02/02 13:37:10;;;;;;;1.20;1.00;;;;;;;2.59;87.83;99256.20;217556;1260;140026;-68
2023/02/02 13:42:42;;;;;;;1.40;1.30;;;;;;;2.60;87.96;99265.80;218153;1258;139771;-67
2023/02/02 13:47:58;;;;;;;2.30;1.80;;;;;;;2.52;87.84;99281.05;218900;1256;139346;-67
2023/02/02 13:53:35;;;;;;;2.10;1.30;;;;;;;2.43;87.62;99286.84;218767;1257;139417;-66
2023/02/02 13:58:53;;;;;;;1.80;0.90;;;;;;;2.39;87.70;99302.63;217836;1256;139432;-65
2023/02/02 14:04:00;;;;;;;1.50;1.20;;;;;;;2.39;87.99;99306.92;218714;1256;139756;-67
2023/02/02 14:09:06;;;;;;;1.60;1.30;;;;;;;2.32;87.96;99321.24;218556;1257;140420;-66
2023/02/02 14:14:33;;;;;;;2.90;2.40;;;;;;;2.25;87.81;99321.86;218845;1257;140050;-68
2023/02/02 14:19:56;;;;;;;2.40;2.20;;;;;;;2.18;88.14;99324.67;218848;1257;139767;-67
2023/02/02 14:25:35;;;;;;;3.80;2.00;;;;;;;2.21;88.26;99337.41;220154;1256;139806;-67
2023/02/02 14:31:27;;;;;;;5.10;2.90;;;;;;;2.23;88.31;99351.67;219867;1256;139832;-66
2023/02/02 14:36:38;;;;;;;3.70;2.00;;;;;;;2.16;87.84;99374.99;220436;1256;139815;-68
2023/02/02 14:48:00;;;;;;;2.10;1.90;;;;;;;1.96;87.08;99406.34;219381;1260;140409;-68
2023/02/02 14:53:12;;;;;;;2.50;2.10;;;;;;;1.87;87.08;99409.81;219195;1256;139450;-67
2023/02/02 14:58:29;;;;;;;5.00;2.70;;;;;;;1.81;87.07;99410.88;220135;1256;140298;-66
2023/02/02 15:03:50;;;;;;;5.70;2.90;;;;;;;1.78;87.06;99418.80;218496;1256;138875;-75
2023/02/02 15:09:18;;;;;;;5.40;4.30;;;;;;;1.72;87.23;99433.56;218187;1258;139583;-64
2023/02/02 15:14:34;;;;;;;3.40;3.10;;;;;;;1.67;87.50;99448.30;219536;1259;140847;-66
2023/02/02 15:19:47;;;;;;;4.40;3.50;;;;;;;1.67;87.93;99462.33;217588;1257;139814;-67
2023/02/02 15:25:04;;;;;;;3.80;3.40;;;;;;;1.68;87.91;99461.37;218207;1257;139410;-68
2023/02/02 15:30:12;;;;;;;5.90;3.90;;;;;;;1.67;87.93;99478.82;218670;1256;140324;-66
2023/02/02 15:35:24;;;;;;;4.60;3.90;;;;;;;1.64;87.93;99486.95;218214;1257;139761;-66
2023/02/02 15:40:31;;;;;;;6.70;3.80;;;;;;;1.63;88.31;99501.29;218398;1257;139977;-68
2023/02/02 15:45:53;;;;;;;4.50;2.40;;;;;;;1.68;88.35;99518.05;217810;1259;141328;-68
2023/02/02 15:51:29;;;;;;;4.00;3.00;;;;;;;1.73;88.47;99535.74;218671;1257;140904;-69
2023/02/02 15:56:34;;;;;;;5.00;3.00;;;;;;;1.76;88.06;99544.84;218245;1256;140468;-65
2023/02/02 16:01:50;;;;;;;7.60;2.70;;;;;;;1.78;88.65;99554.97;218931;1255;139221;-68
2023/02/02 16:06:54;;;;;;;3.70;3.10;;;;;;;1.76;88.24;99570.23;218417;1256;139849;-65
2023/02/02 16:12:00;;;;;;;5.70;2.40;;;;;;;1.70;88.45;99584.78;217777;1256;139237;-68
2023/02/02 16:17:11;;;;;;;14.30;11.40;;;;;;;1.66;88.54;99601.70;218723;1256;140848;-65
2023/02/02 16:22:24;;;;;;;29.30;16.00;;;;;;;1.63;88.43;99612.56;220438;1257;139590;-65
2023/02/02 16:27:30;;;;;;;6.70;3.20;;;;;;;1.62;88.54;99622.78;219528;1256;140274;-66
2023/02/02 16:32:37;;;;;;;5.70;4.20;;;;;;;1.64;88.49;99633.15;220328;1256;139832;-66
2023/02/02 16:37:42;;;;;;;4.60;3.50;;;;;;;1.63;88.50;99643.77;220408;1256;139075;-68
2023/02/02 16:42:45;;;;;;;3.50;2.60;;;;;;;1.63;88.62;99659.83;220296;1255;141059;-69
2023/02/02 16:47:50;;;;;;;4.00;2.80;;;;;;;1.62;88.05;99675.86;220551;1256;140349;-67
2023/02/02 16:53:01;;;;;;;5.30;2.00;;;;;;;1.60;88.31;99681.77;217970;1256;139649;-66
2023/02/02 16:58:05;;;;;;;3.80;3.20;;;;;;;1.56;88.18;99697.45;219234;1255;139695;-67
2023/02/02 17:03:11;;;;;;;4.10;3.00;;;;;;;1.52;88.28;99702.81;218200;1256;140567;-67
2023/02/02 17:08:32;;;;;;;6.40;2.90;;;;;;;1.50;88.35;99717.23;218514;1256;139981;-69
2023/02/02 17:13:41;;;;;;;4.30;2.80;;;;;;;1.50;88.37;99730.23;217581;1259;140853;-68
2023/02/02 17:18:46;;;;;;;3.40;2.80;;;;;;;1.52;88.44;99738.79;217344;1257;139695;-67
2023/02/02 17:23:57;;;;;;;5.10;3.30;;;;;;;1.53;88.33;99751.77;218297;1256;403527;-68
2023/02/02 17:29:04;;;;;;;4.90;2.90;;;;;;;1.51;87.94;99760.76;217384;1257;139490;-67
2023/02/02 17:34:12;;;;;;;2.80;2.50;;;;;;;1.49;87.97;99770.06;217472;1257;139143;-66
2023/02/02 17:39:17;;;;;;;4.20;3.30;;;;;;;1.46;87.97;99780.42;218272;1256;140302;-68
2023/02/02 17:44:26;;;;;;;4.20;3.30;;;;;;;1.44;87.90;99792.95;217895;1256;139936;-65
2023/02/02 17:49:30;;;;;;;7.40;2.80;;;;;;;1.42;88.25;99806.06;218078;1257;139825;-65
2023/02/02 17:54:36;;;;;;;5.50;5.00;;;;;;;1.41;88.28;99816.41;218141;1256;139098;-66
2023/02/02 17:59:49;;;;;;;4.70;3.40;;;;;;;1.40;88.19;99829.69;219159;1256;139583;-65
2023/02/02 18:04:57;;;;;;;4.70;4.10;;;;;;;1.38;88.32;99849.26;218120;1257;139149;-65
2023/02/02 18:10:03;;;;;;;9.10;3.70;;;;;;;1.40;88.07;99857.27;217594;1259;141241;-65
2023/02/02 18:15:12;;;;;;;7.10;3.60;;;;;;;1.38;87.98;99859.40;217214;1257;139581;-66
2023/02/02 18:20:19;;;;;;;5.30;4.10;;;;;;;1.37;88.02;99877.60;219871;1256;140699;-67
2023/02/02 18:25:24;;;;;;;7.50;4.90;;;;;;;1.37;87.94;99889.65;220302;1256;140597;-67
2023/02/02 18:30:31;;;;;;;9.60;4.60;;;;;;;1.37;87.99;99900.34;219901;1256;139472;-66
2023/02/02 18:35:39;;;;;;;5.80;4.30;;;;;;;1.34;87.83;99912.23;219936;1256;140896;-67
2023/02/02 18:40:45;;;;;;;6.10;4.90;;;;;;;1.30;87.72;99923.88;218503;1256;139637;-66
2023/02/02 18:45:57;;;;;;;4.60;3.60;;;;;;;1.23;87.97;99937.47;219905;1256;220806;-67
2023/02/02 18:51:12;;;;;;;7.80;4.20;;;;;;;1.15;87.74;99951.32;218582;1256;142419;-66
2023/02/02 18:56:17;;;;;;;6.40;5.70;;;;;;;1.13;87.80;99963.59;219254;1255;139889;-66
2023/02/02 19:01:25;;;;;;;8.20;5.10;;;;;;;1.16;88.35;99973.08;220077;1256;139991;-66
2023/02/02 19:11:53;;;;;;;8.80;5.20;;;;;;;1.07;87.89;99997.05;219783;1255;140252;-68
2023/02/02 19:17:20;;;;;;;6.80;4.50;;;;;;;1.05;88.27;100005.95;219962;1257;140067;-67
2023/02/02 19:22:30;;;;;;;5.10;4.30;;;;;;;1.06;88.37;100014.77;217952;1259;139754;-69
2023/02/02 19:27:36;;;;;;;5.90;4.40;;;;;;;1.07;87.93;100027.49;218131;1256;139683;-68
2023/02/02 19:32:45;;;;;;;7.10;5.70;;;;;;;1.04;88.31;100031.08;218885;1256;140398;-67
2023/02/02 19:37:59;;;;;;;7.00;3.80;;;;;;;1.02;87.89;100034.98;217427;1259;139659;-67
2023/02/02 19:43:18;;;;;;;6.40;4.90;;;;;;;1.00;88.13;100056.37;217909;1256;139737;-67
2023/02/02 19:48:25;;;;;;;6.90;4.20;;;;;;;0.95;88.16;100058.97;218339;1256;140286;-68
2023/02/02 19:53:37;;;;;;;8.20;3.80;;;;;;;0.91;88.14;100067.29;217654;1257;139863;-67
2023/02/02 19:58:48;;;;;;;4.50;3.60;;;;;;;0.88;87.91;100076.61;218391;1257;139697;-66
2023/02/02 20:03:57;;;;;;;5.10;2.90;;;;;;;0.86;87.73;100081.69;219621;1256;141706;-67
2023/02/02 20:09:10;;;;;;;;;;;;;;;0.86;87.91;100090.94;218206;1256;140250;-65
2023/02/02 20:14:15;;;;;;;6.90;2.90;;;;;;;0.81;87.78;100103.02;219688;1259;126229;-66
2023/02/02 20:19:26;;;;;;;6.00;3.80;;;;;;;0.80;87.50;100109.46;219338;1256;246963;-66
2023/02/02 20:24:39;;;;;;;4.70;3.30;;;;;;;0.79;87.95;100121.14;220641;1256;139590;-66
2023/02/02 20:29:47;;;;;;;7.20;3.40;;;;;;;0.77;88.07;100123.36;220645;1256;140337;-65
2023/02/02 20:34:56;;;;;;;5.50;4.90;;;;;;;0.76;87.56;100133.30;218715;1257;139811;-66
2023/02/02 20:40:03;;;;;;;7.10;5.30;;;;;;;0.75;87.67;100138.97;219397;1256;139447;-66
2023/02/02 20:45:10;;;;;;;7.90;4.40;;;;;;;0.75;87.81;100152.29;220083;1256;141357;-66
2023/02/02 20:50:17;;;;;;;5.40;4.90;;;;;;;0.77;87.46;100159.75;219797;1257;140034;-66
2023/02/02 20:55:23;;;;;;;;;;;;;;;0.79;87.40;100167.81;219461;1257;140409;-66
2023/02/02 21:06:43;;;;;;;6.20;5.00;;;;;;;0.75;86.93;100201.33;218842;1257;140356;-67
2023/02/02 21:11:48;;;;;;;5.60;3.80;;;;;;;0.70;87.09;100204.95;217696;1257;139814;-65
2023/02/02 21:16:53;;;;;;;8.60;3.20;;;;;;;0.64;87.03;100212.67;218188;1257;140476;-68
2023/02/02 21:22:17;;;;;;;5.40;3.60;;;;;;;0.61;86.93;100221.33;217590;1256;139725;-64
2023/02/02 21:27:23;;;;;;;2.80;2.30;;;;;;;0.57;86.88;100237.84;217866;1257;139548;-64
2023/02/02 21:32:28;;;;;;;3.50;3.00;;;;;;;0.52;86.78;100233.98;219135;1256;140165;-64
2023/02/02 21:37:38;;;;;;;9.00;3.60;;;;;;;0.47;86.62;100249.89;218425;1256;139889;-64
2023/02/02 21:42:48;;;;;;;5.90;3.40;;;;;;;0.44;86.95;100252.30;219077;1256;140644;-64
2023/02/02 21:48:19;;;;;;;7.50;3.50;;;;;;;0.44;86.60;100260.73;219044;1256;140458;-65
2023/02/02 21:53:27;;;;;;;5.50;2.80;;;;;;;0.42;86.78;100272.22;218754;1257;140966;-67
2023/02/02 21:58:34;;;;;;;5.90;3.40;;;;;;;0.41;86.58;100282.02;217916;1256;140345;-65
2023/02/02 22:03:45;;;;;;;5.80;3.40;;;;;;;0.39;86.26;100287.02;217888;1257;139406;-66
2023/02/02 22:08:50;;;;;;;5.40;3.90;;;;;;;0.38;86.53;100284.36;219776;1255;140635;-66
2023/02/02 22:14:15;;;;;;;5.70;2.90;;;;;;;0.37;86.50;100279.20;219203;1256;142001;-64
2023/02/02 22:19:31;;;;;;;3.80;2.70;;;;;;;0.37;86.24;100287.63;219619;1256;141002;-67
2023/02/02 22:24:38;;;;;;;4.80;2.60;;;;;;;0.35;86.07;100299.48;218662;1256;140141;-69
2023/02/02 22:29:42;;;;;;;2.50;2.30;;;;;;;0.33;86.07;100301.05;219689;1256;140052;-69
2023/02/02 22:34:47;;;;;;;4.80;4.00;;;;;;;0.30;85.87;100305.21;220581;1256;140169;-66
2023/02/02 22:39:51;;;;;;;4.90;2.60;;;;;;;0.30;85.93;100300.88;220436;1256;249072;-67
2023/02/02 22:44:56;;;;;;;3.40;3.10;;;;;;;0.32;85.73;100311.52;220332;1256;139815;-69
2023/02/02 22:50:03;;;;;;;4.20;2.60;;;;;;;0.33;85.74;100312.23;220244;1257;139777;-66
2023/02/02 22:55:08;;;;;;;7.00;3.50;;;;;;;0.32;85.53;100316.02;218951;1257;141300;-65
2023/02/02 23:00:15;;;;;;;3.40;2.00;;;;;;;0.31;85.54;100324.67;217243;1257;140686;-66
2023/02/02 23:05:20;;;;;;;3.70;1.90;;;;;;;0.31;85.58;100332.73;218283;1256;139395;-66
2023/02/02 23:10:26;;;;;;;2.90;2.30;;;;;;;0.30;85.22;100324.77;217561;1257;140416;-67
2023/02/02 23:15:33;;;;;;;4.60;2.50;;;;;;;0.29;85.08;100320.58;218588;1259;139895;-66
2023/02/02 23:20:39;;;;;;;3.60;1.80;;;;;;;0.26;85.00;100321.91;219319;1256;140165;-66
2023/02/02 23:25:43;;;;;;;4.70;2.10;;;;;;;0.26;84.92;100330.52;218124;1259;140633;-66
2023/02/02 23:30:50;;;;;;;3.70;1.70;;;;;;;0.24;84.79;100333.98;219217;1256;139647;-67
2023/02/02 23:35:55;;;;;;;4.80;1.90;;;;;;;0.25;84.82;100348.45;218605;1259;139752;-68
2023/02/02 23:41:00;;;;;;;3.80;2.00;;;;;;;0.25;84.69;100352.09;218711;1259;140330;-69
2023/02/02 23:46:05;;;;;;;8.70;3.30;;;;;;;0.26;84.61;100351.14;218227;1259;140378;-69
2023/02/02 23:51:11;;;;;;;10.20;3.30;;;;;;;0.24;84.69;100351.68;219053;1257;139500;-68
2023/02/02 23:56:17;;;;;;;6.20;2.50;;;;;;;0.23;84.50;100352.45;219114;1257;141461;-68
